Time;durP1;ratioP1;P1;durP2;ratioP2;P2;SDS_P1;SDS_P2;PMS_P1;PMS_P2;Temp;Humidity;BMP_temperature;BMP_pressure;BME280_temperature;BME280_humidity;BME280_pressure;Samples;Min_cycle;Max_cycle;Signal;HPM_P1;HPM_P2
2023/12/25 00:00:32;;;;;;;1.25;1.20;;;;;;;9.98;59.96;97899.72;5029218;28;20178;-57
2023/12/25 00:02:58;;;;;;;1.20;1.13;;;;;;;10.31;60.25;97956.66;5029233;28;20266;-57
2023/12/25 00:05:23;;;;;;;1.98;1.00;;;;;;;10.04;59.85;97904.44;5029229;28;20182;-56
2023/12/25 00:07:48;;;;;;;1.77;1.15;;;;;;;10.65;58.89;97997.19;5029194;28;20179;-56
2023/12/25 00:10:14;;;;;;;1.80;1.35;;;;;;;10.21;59.05;97915.16;5030962;28;20360;-56
2023/12/25 00:12:39;;;;;;;1.10;1.00;;;;;;;10.13;59.28;97912.34;5051699;28;20174;-56
2023/12/25 00:15:05;;;;;;;1.48;1.38;;;;;;;10.25;59.39;97939.88;5051435;28;20186;-56
2023/12/25 00:17:31;;;;;;;2.53;1.25;;;;;;;10.29;59.09;97948.22;5051329;28;20201;-56
2023/12/25 00:19:56;;;;;;;1.75;1.30;;;;;;;10.22;60.16;97962.53;5051324;28;20182;-57
2023/12/25 00:22:22;;;;;;;2.13;1.60;;;;;;;10.38;59.43;97978.53;5051218;28;20738;-56
2023/12/25 00:24:47;;;;;;;1.52;1.25;;;;;;;10.56;59.83;98028.94;5054891;28;20284;-56
2023/12/25 00:27:13;;;;;;;1.50;1.15;;;;;;;10.44;59.27;98004.78;5055040;28;20169;-56
2023/12/25 00:29:38;;;;;;;1.42;1.33;;;;;;;10.13;59.71;97943.34;5052406;28;20667;-56
2023/12/25 00:32:04;;;;;;;2.08;1.35;;;;;;;10.69;58.63;98025.28;5052572;28;20678;-57
2023/12/25 00:34:29;;;;;;;1.30;1.20;;;;;;;10.74;58.95;98023.19;5052476;28;20608;-56
2023/12/25 00:36:55;;;;;;;2.40;1.27;;;;;;;10.54;59.05;97973.88;5052498;28;20257;-56
2023/12/25 00:39:20;;;;;;;3.05;1.40;;;;;;;10.60;58.17;97973.41;5052625;28;20185;-56
2023/12/25 00:41:46;;;;;;;1.55;1.40;;;;;;;10.79;57.98;97994.38;5052301;28;20201;-56
2023/12/25 00:44:11;;;;;;;1.77;1.40;;;;;;;10.88;57.99;98011.78;5052363;28;20221;-56
2023/12/25 00:46:37;;;;;;;2.35;1.33;;;;;;;10.58;59.11;97955.44;5052313;28;20178;-56
2023/12/25 00:49:03;;;;;;;2.63;1.40;;;;;;;10.85;58.57;98005.06;5052199;28;20189;-56
2023/12/25 00:51:28;;;;;;;2.63;1.25;;;;;;;10.40;59.37;97938.69;5052118;28;20178;-56
2023/12/25 00:53:53;;;;;;;1.55;1.45;;;;;;;10.37;59.64;97945.88;5052321;28;20173;-57
2023/12/25 00:56:19;;;;;;;1.67;1.38;;;;;;;10.41;60.07;97962.81;5052078;28;20190;-57
2023/12/25 00:58:44;;;;;;;1.40;1.30;;;;;;;10.24;59.96;97945.13;5052106;28;20649;-56
2023/12/25 01:01:10;;;;;;;1.73;1.25;;;;;;;10.15;60.82;97930.34;5053496;28;20563;-56
2023/12/25 01:03:35;;;;;;;1.67;1.48;;;;;;;10.28;60.76;97962.88;5054432;28;20182;-56
2023/12/25 01:06:01;;;;;;;1.60;1.33;;;;;;;10.33;60.16;97978.09;5054344;28;20178;-57
2023/12/25 01:08:26;;;;;;;3.70;1.90;;;;;;;9.98;60.46;97913.44;5054584;28;20182;-56
2023/12/25 01:10:52;;;;;;;1.73;1.42;;;;;;;10.51;60.58;98007.75;5054067;28;20170;-57
2023/12/25 01:13:17;;;;;;;2.47;1.17;;;;;;;9.99;60.40;97915.06;5054205;28;20255;-56
2023/12/25 01:15:43;;;;;;;1.70;1.15;;;;;;;9.85;60.58;97906.69;5053938;28;20189;-57
2023/12/25 01:18:08;;;;;;;1.30;1.20;;;;;;;10.30;60.47;97981.72;5054114;28;20196;-56
2023/12/25 01:20:34;;;;;;;2.13;1.30;;;;;;;10.11;60.26;97942.63;5053967;28;20177;-56
2023/12/25 01:22:59;;;;;;;1.75;1.50;;;;;;;10.16;60.88;97943.13;5053721;28;20185;-56
2023/12/25 01:25:25;;;;;;;2.05;1.60;;;;;;;10.15;60.71;97941.47;5053618;28;20646;-56
2023/12/25 01:27:50;;;;;;;1.30;1.20;;;;;;;10.25;60.56;97957.13;5053937;28;20264;-57
2023/12/25 01:30:15;;;;;;;3.20;1.10;;;;;;;10.49;59.80;97983.75;5053941;28;20180;-57
2023/12/25 01:32:41;;;;;;;2.47;1.10;;;;;;;10.61;59.33;97987.97;5053844;28;20553;-57
2023/12/25 01:35:07;;;;;;;1.40;1.20;;;;;;;10.44;59.10;97957.41;5053259;28;20177;-58
2023/12/25 01:37:32;;;;;;;5.60;1.20;;;;;;;10.39;58.99;97939.63;5053457;28;20257;-58
2023/12/25 01:39:58;;;;;;;3.08;1.42;;;;;;;10.43;59.08;97929.88;5053028;28;20178;-57
2023/12/25 01:42:23;;;;;;;1.40;1.15;;;;;;;10.39;58.88;97913.78;5053667;28;20193;-57
2023/12/25 01:44:48;;;;;;;2.67;1.50;;;;;;;10.19;59.08;97882.59;5053649;28;20201;-57
2023/12/25 01:47:18;;;;;;;1.85;1.10;;;;;;;10.37;58.90;97896.72;5053585;28;20207;-57
2023/12/25 01:49:43;;;;;;;1.15;1.05;;;;;;;10.57;58.89;97922.72;5053503;28;20717;-57
2023/12/25 01:52:09;;;;;;;2.35;1.20;;;;;;;10.23;59.41;97873.69;5053490;28;20277;-58
2023/12/25 01:54:37;;;;;;;7.25;1.33;;;;;;;10.17;59.69;97866.41;5053442;28;20178;-57
2023/12/25 01:57:02;;;;;;;1.95;1.08;;;;;;;10.59;59.87;97961.41;5053404;28;20231;-57
2023/12/25 01:59:29;;;;;;;1.67;1.48;;;;;;;10.25;60.44;97913.16;5050856;28;20745;-57
2023/12/25 02:01:57;;;;;;;4.10;1.60;;;;;;;9.88;60.43;97867.72;5050860;28;20210;-57
2023/12/25 02:04:23;;;;;;;1.48;1.05;;;;;;;9.91;60.83;97881.22;5050929;28;20185;-57
2023/12/25 02:06:50;;;;;;;1.65;1.20;;;;;;;9.98;60.58;97899.72;5050780;28;20180;-57
2023/12/25 02:09:16;;;;;;;1.02;0.93;;;;;;;10.31;60.70;97954.09;5050801;28;20185;-57
2023/12/25 02:11:41;;;;;;;1.17;1.10;;;;;;;9.82;60.69;97868.19;5050777;28;20248;-57
2023/12/25 02:14:07;;;;;;;1.42;1.00;;;;;;;10.32;60.57;97961.72;5050627;28;20272;-57
2023/12/25 02:16:35;;;;;;;1.50;1.20;;;;;;;10.35;59.50;97953.75;5050543;28;20190;-57
2023/12/25 02:19:01;;;;;;;1.73;1.20;;;;;;;10.17;59.67;97908.56;5050460;28;20186;-58
2023/12/25 02:21:27;;;;;;;1.60;1.30;;;;;;;10.23;59.36;97915.06;5050401;28;20357;-57
2023/12/25 02:23:59;;;;;;;2.33;1.42;;;;;;;10.56;59.34;97969.44;5050392;28;20206;-57
2023/12/25 02:26:24;;;;;;;2.10;1.10;;;;;;;10.09;59.34;97892.81;5050509;28;20190;-58
2023/12/25 02:28:50;;;;;;;1.77;1.02;;;;;;;10.40;58.89;97924.97;5050362;28;20205;-57
2023/12/25 02:31:17;;;;;;;1.75;1.23;;;;;;;10.46;58.73;97930.47;5050281;28;20197;-57
2023/12/25 02:33:42;;;;;;;1.52;1.30;;;;;;;10.45;58.58;97920.28;5050594;28;20190;-57
2023/12/25 02:36:08;;;;;;;1.67;1.25;;;;;;;10.49;58.58;97932.84;5050196;28;20683;-57
2023/12/25 02:38:33;;;;;;;1.00;0.90;;;;;;;10.27;58.45;97882.88;5050151;28;20185;-57
2023/12/25 02:40:58;;;;;;;1.25;1.10;;;;;;;10.25;58.34;97880.41;5050074;28;20197;-57
2023/12/25 02:43:24;;;;;;;1.85;1.00;;;;;;;10.80;58.16;97963.19;5050128;28;20173;-58
2023/12/25 02:45:49;;;;;;;1.25;1.02;;;;;;;10.87;58.27;97963.56;5049759;28;20177;-58
2023/12/25 02:48:14;;;;;;;0.80;0.80;;;;;;;10.59;57.41;97914.84;5051145;28;20188;-58
2023/12/25 02:50:40;;;;;;;2.20;1.20;;;;;;;10.85;57.46;97947.34;5052126;28;20197;-58
2023/12/25 02:53:05;;;;;;;1.60;0.88;;;;;;;10.73;56.71;97930.97;5052357;28;20647;-58
2023/12/25 02:55:31;;;;;;;2.03;1.00;;;;;;;10.74;56.42;97898.16;5052042;28;20177;-57
2023/12/25 02:57:56;;;;;;;0.73;0.73;;;;;;;11.24;55.96;97959.75;5052271;28;20189;-58
2023/12/25 03:00:22;;;;;;;2.03;1.05;;;;;;;10.86;55.77;97892.03;5052435;28;20209;-57
2023/12/25 03:02:47;;;;;;;3.40;1.70;;;;;;;10.76;56.22;97871.25;5052137;28;20296;-58
2023/12/25 03:05:13;;;;;;;2.13;1.50;;;;;;;11.21;56.18;97960.00;5052227;28;20173;-58
2023/12/25 03:07:38;;;;;;;1.25;1.08;;;;;;;11.15;56.80;97953.53;5052152;28;20174;-58
2023/12/25 03:10:04;;;;;;;3.03;1.20;;;;;;;10.93;56.79;97926.84;5052143;28;20176;-57
2023/12/25 03:12:29;;;;;;;2.70;1.33;;;;;;;10.84;57.19;97905.09;5052051;28;20251;-58
2023/12/25 03:14:55;;;;;;;2.53;1.20;;;;;;;10.64;57.15;97868.75;5051739;28;20170;-57
2023/12/25 03:17:20;;;;;;;1.77;1.20;;;;;;;11.02;57.73;97955.44;5051987;28;20636;-57
2023/12/25 03:19:46;;;;;;;2.42;1.02;;;;;;;10.79;57.66;97921.94;5051940;28;20166;-58
2023/12/25 03:22:11;;;;;;;1.23;1.05;;;;;;;10.45;57.79;97889.22;5051616;28;20197;-58
2023/12/25 03:24:36;;;;;;;1.33;1.13;;;;;;;10.38;58.08;97886.28;5051843;28;20253;-57
2023/12/25 03:27:02;;;;;;;1.33;0.90;;;;;;;10.30;57.96;97878.28;5051901;28;20165;-58
2023/12/25 03:29:28;;;;;;;1.02;0.80;;;;;;;10.33;58.20;97872.06;5051874;28;20181;-58
2023/12/25 03:31:53;;;;;;;2.25;1.00;;;;;;;10.51;58.26;97901.69;5051872;28;20238;-58
2023/12/25 03:34:20;;;;;;;2.63;1.25;;;;;;;10.22;58.04;97869.47;5051751;28;20178;-57
2023/12/25 03:36:46;;;;;;;3.60;2.38;;;;;;;10.61;58.45;97941.41;5051767;28;20703;-57
2023/12/25 03:39:11;;;;;;;3.55;1.80;;;;;;;10.29;59.12;97887.00;5051597;28;20238;-57
2023/12/25 03:41:36;;;;;;;3.47;2.40;;;;;;;10.25;59.52;97897.66;5051576;28;20208;-58
2023/12/25 03:44:02;;;;;;;2.58;2.38;;;;;;;10.73;60.08;97981.91;5051457;28;20174;-58
2023/12/25 03:46:28;;;;;;;3.80;2.90;;;;;;;10.66;60.68;97983.28;5051666;28;20177;-58
2023/12/25 03:48:54;;;;;;;4.13;2.95;;;;;;;10.07;61.56;97897.28;5051707;28;20181;-58
2023/12/25 03:51:19;;;;;;;5.97;3.70;;;;;;;10.60;61.01;97984.59;5051655;28;20181;-58
2023/12/25 03:53:44;;;;;;;2.72;2.45;;;;;;;10.49;62.30;97981.16;5051581;28;20182;-58
2023/12/25 03:56:15;;;;;;;6.75;2.55;;;;;;;9.95;62.32;97881.81;5051619;28;20181;-57
2023/12/25 03:58:40;;;;;;;1.50;1.33;;;;;;;10.23;60.58;97927.97;5051413;28;20193;-58
2023/12/25 04:01:06;;;;;;;3.22;1.13;;;;;;;10.84;56.62;97962.03;5072978;28;20219;-57
2023/12/25 04:03:31;;;;;;;1.42;1.27;;;;;;;11.01;56.71;97947.78;5073138;28;20250;-58
2023/12/25 04:05:56;;;;;;;1.02;1.00;;;;;;;10.59;56.80;97870.88;5073090;28;20587;-58
2023/12/25 04:08:22;;;;;;;2.60;1.08;;;;;;;11.06;57.13;97940.47;5073001;28;20275;-57
2023/12/25 04:10:47;;;;;;;1.52;1.08;;;;;;;11.03;57.27;97951.09;5072962;28;20192;-57
2023/12/25 04:13:13;;;;;;;1.38;0.90;;;;;;;11.13;56.12;97957.19;5072875;28;20189;-57
2023/12/25 04:15:38;;;;;;;0.85;0.80;;;;;;;10.85;56.89;97924.03;5072839;28;20238;-57
2023/12/25 04:18:04;;;;;;;0.63;0.63;;;;;;;11.02;57.05;97970.13;5072829;28;20196;-57
2023/12/25 04:20:29;;;;;;;1.02;1.02;;;;;;;10.81;57.19;97962.25;5072711;28;20604;-57
2023/12/25 04:22:54;;;;;;;2.33;1.00;;;;;;;10.60;57.62;97948.38;5072995;28;20231;-58
2023/12/25 04:25:20;;;;;;;0.88;0.88;;;;;;;10.33;57.92;97903.09;5072489;28;20232;-58
2023/12/25 04:27:45;;;;;;;2.50;1.30;;;;;;;10.75;58.06;97985.19;5072631;28;20185;-57
2023/12/25 04:30:11;;;;;;;2.45;1.20;;;;;;;10.14;58.69;97895.88;5072622;28;20870;-58
2023/12/25 04:32:36;;;;;;;2.42;1.30;;;;;;;10.57;59.02;97973.66;5059653;28;20192;-57
2023/12/25 04:35:02;;;;;;;1.10;0.98;;;;;;;10.38;59.18;97955.25;5054964;28;20203;-57
2023/12/25 04:37:27;;;;;;;1.30;1.20;;;;;;;10.44;59.87;97972.94;5054920;28;20174;-58
2023/12/25 04:39:52;;;;;;;2.13;1.30;;;;;;;9.91;59.88;97895.91;5054775;28;20182;-57
2023/12/25 04:42:18;;;;;;;1.65;1.13;;;;;;;10.24;60.26;97973.56;5054791;28;20244;-57
2023/12/25 04:44:43;;;;;;;1.38;1.00;;;;;;;10.24;60.47;97984.75;5054830;28;20173;-58
2023/12/25 04:47:09;;;;;;;2.03;1.10;;;;;;;9.88;60.67;97937.50;5054735;28;20285;-57
2023/12/25 04:49:34;;;;;;;1.05;1.00;;;;;;;9.82;60.85;97925.03;5054664;28;20174;-58
2023/12/25 04:52:00;;;;;;;4.05;1.00;;;;;;;9.89;61.35;97939.97;5054597;28;20178;-58
2023/12/25 04:54:25;;;;;;;2.42;1.10;;;;;;;9.68;61.32;97915.69;5054661;28;20181;-58
2023/12/25 04:56:52;;;;;;;0.70;0.70;;;;;;;9.59;61.81;97905.19;5054577;28;20174;-58
2023/12/25 04:59:20;;;;;;;0.77;0.77;;;;;;;10.01;61.62;97966.66;5054510;28;20591;-57
2023/12/25 05:01:48;;;;;;;1.35;1.10;;;;;;;10.08;61.55;97986.81;5054353;28;20193;-58
2023/12/25 05:04:14;;;;;;;2.35;1.10;;;;;;;9.66;61.79;97934.81;5054407;28;20540;-57
2023/12/25 05:06:40;;;;;;;0.85;0.85;;;;;;;9.62;61.52;97925.63;5031908;28;20286;-58
2023/12/25 05:09:05;;;;;;;1.83;1.40;;;;;;;10.03;62.08;98003.53;5031472;28;20316;-57
2023/12/25 05:11:30;;;;;;;1.15;1.00;;;;;;;9.98;61.37;97992.75;5031692;28;20281;-58
2023/12/25 05:13:56;;;;;;;2.38;0.70;;;;;;;9.82;61.15;97956.81;5031985;28;20277;-58
2023/12/25 05:16:21;;;;;;;2.33;1.20;;;;;;;9.57;60.93;97902.72;5031818;28;20182;-58
2023/12/25 05:18:47;;;;;;;1.10;1.00;;;;;;;9.76;60.49;97941.78;5031829;28;20183;-58
2023/12/25 05:21:12;;;;;;;2.80;1.25;;;;;;;9.90;60.56;97966.63;5031794;28;20214;-57
2023/12/25 05:23:37;;;;;;;1.50;1.00;;;;;;;9.88;61.03;97958.16;5031716;28;20196;-57
2023/12/25 05:26:03;;;;;;;1.00;0.95;;;;;;;9.75;61.50;97949.66;5031626;28;20221;-57
2023/12/25 05:28:28;;;;;;;2.28;0.75;;;;;;;9.74;61.85;97956.56;5031730;28;20770;-57
2023/12/25 05:30:54;;;;;;;0.77;0.75;;;;;;;9.94;61.86;97978.38;5031612;28;20210;-57
2023/12/25 05:33:20;;;;;;;2.28;1.00;;;;;;;9.66;61.45;97942.56;5031511;28;20288;-57
2023/12/25 05:35:46;;;;;;;1.52;0.98;;;;;;;9.74;60.99;97929.91;5031470;28;20182;-57
2023/12/25 05:38:12;;;;;;;0.77;0.77;;;;;;;9.64;60.84;97898.75;5047496;28;20647;-57
2023/12/25 05:40:38;;;;;;;0.75;0.75;;;;;;;9.78;61.23;97931.34;5053621;28;20276;-57
2023/12/25 05:43:03;;;;;;;1.80;1.05;;;;;;;10.09;61.95;97982.47;5053690;28;20321;-57
2023/12/25 05:45:29;;;;;;;1.00;0.90;;;;;;;9.74;61.51;97935.06;5053588;28;20194;-57
2023/12/25 05:47:54;;;;;;;1.85;0.90;;;;;;;9.49;61.58;97893.06;5053594;28;20275;-57
2023/12/25 05:50:19;;;;;;;1.85;1.05;;;;;;;10.02;61.75;97987.22;5053570;28;20178;-57
2023/12/25 05:52:45;;;;;;;0.98;0.98;;;;;;;10.05;61.32;97996.56;5052911;28;20209;-57
2023/12/25 05:55:11;;;;;;;0.82;0.80;;;;;;;9.44;61.59;97916.63;5053513;28;20691;-57
2023/12/25 05:57:36;;;;;;;1.35;1.23;;;;;;;9.88;62.13;97984.00;5053369;28;20652;-57
2023/12/25 06:00:02;;;;;;;2.55;1.30;;;;;;;9.67;61.83;97959.69;5053440;28;20239;-57
2023/12/25 06:02:28;;;;;;;1.85;1.60;;;;;;;9.79;62.24;98005.31;5053238;28;20656;-57
2023/12/25 06:04:53;;;;;;;3.25;2.25;;;;;;;9.38;61.99;97916.25;5053262;28;20178;-57
2023/12/25 06:07:19;;;;;;;2.58;2.00;;;;;;;9.81;62.20;97987.97;5053029;28;20272;-57
2023/12/25 06:09:44;;;;;;;2.42;2.20;;;;;;;9.80;61.91;98007.00;5053220;28;20174;-57
2023/12/25 06:12:10;;;;;;;1.55;1.45;;;;;;;9.75;61.91;98003.91;5053077;28;20626;-57
2023/12/25 06:14:36;;;;;;;1.25;1.15;;;;;;;9.34;62.07;97933.72;5053005;28;20227;-57
2023/12/25 06:17:02;;;;;;;1.17;1.05;;;;;;;9.95;61.53;98013.63;5053048;28;20260;-57
2023/12/25 06:19:27;;;;;;;2.83;1.23;;;;;;;9.47;61.85;97916.41;5052975;28;20285;-57
2023/12/25 06:21:53;;;;;;;1.08;1.00;;;;;;;10.01;60.76;97998.50;5052825;28;20268;-57
2023/12/25 06:24:18;;;;;;;1.40;1.30;;;;;;;9.74;61.85;97960.91;5052968;28;20205;-57
2023/12/25 06:26:44;;;;;;;0.95;0.93;;;;;;;9.75;61.72;97967.75;5052579;28;20162;-57
2023/12/25 06:29:10;;;;;;;1.42;1.00;;;;;;;9.98;61.94;98010.84;5052807;28;20179;-57
2023/12/25 06:31:35;;;;;;;1.10;0.88;;;;;;;9.75;61.94;97952.25;5053004;28;20177;-57
2023/12/25 06:34:01;;;;;;;1.73;0.80;;;;;;;9.43;61.70;97880.59;5052639;28;20531;-56
2023/12/25 06:36:27;;;;;;;0.70;0.70;;;;;;;9.88;61.28;97945.25;5052364;28;20173;-56
2023/12/25 06:38:52;;;;;;;1.30;1.13;;;;;;;9.49;61.27;97868.06;5052622;28;20768;-57
2023/12/25 06:41:17;;;;;;;1.60;1.50;;;;;;;10.07;60.02;97942.97;5052513;28;20719;-57
2023/12/25 06:43:43;;;;;;;1.75;1.30;;;;;;;10.27;58.50;97939.75;5052301;28;20186;-57
2023/12/25 06:46:08;;;;;;;1.40;1.30;;;;;;;9.91;58.56;97885.56;5052432;28;20170;-57
2023/12/25 06:48:34;;;;;;;1.67;1.10;;;;;;;10.25;56.26;97901.09;5052400;28;20231;-57
2023/12/25 06:51:00;;;;;;;1.30;1.20;;;;;;;10.50;58.11;97957.75;5049815;28;20667;-57
2023/12/25 06:53:25;;;;;;;1.83;1.48;;;;;;;10.21;58.61;97925.50;5049995;28;20288;-57
2023/12/25 06:55:50;;;;;;;2.20;1.83;;;;;;;10.39;59.08;97969.88;5049884;28;20186;-57
2023/12/25 06:58:16;;;;;;;4.40;2.88;;;;;;;10.62;59.34;98020.72;5049900;28;20232;-56
2023/12/25 07:00:41;;;;;;;3.13;2.17;;;;;;;10.57;59.33;98030.56;5049710;28;20574;-57
2023/12/25 07:03:07;;;;;;;2.22;2.00;;;;;;;10.39;59.11;98006.06;5049792;28;20200;-57
2023/12/25 07:05:33;;;;;;;2.55;1.63;;;;;;;10.05;59.21;97947.44;5049682;28;20193;-56
2023/12/25 07:07:58;;;;;;;1.92;1.58;;;;;;;10.48;59.25;98020.88;5049639;28;20181;-57
2023/12/25 07:10:24;;;;;;;1.10;1.10;;;;;;;10.19;59.07;97953.25;5049658;28;20754;-56
2023/12/25 07:12:50;;;;;;;1.30;1.20;;;;;;;10.68;59.21;98033.19;5049613;28;20182;-56
2023/12/25 07:15:16;;;;;;;1.50;1.00;;;;;;;10.39;59.30;97967.28;5048899;28;20185;-56
2023/12/25 07:17:41;;;;;;;3.03;1.08;;;;;;;10.13;59.39;97927.00;5049516;28;20668;-57
2023/12/25 07:20:07;;;;;;;1.58;1.25;;;;;;;10.59;59.76;97988.13;5049583;28;20196;-57
2023/12/25 07:22:32;;;;;;;0.80;0.80;;;;;;;10.16;59.20;97912.09;5049451;28;20218;-56
2023/12/25 07:25:04;;;;;;;0.80;0.80;;;;;;;10.28;58.84;97910.38;5049512;28;20193;-57
2023/12/25 07:27:31;;;;;;;3.08;1.38;;;;;;;10.96;57.64;98009.44;5049637;28;20286;-57
2023/12/25 07:29:56;;;;;;;1.08;1.00;;;;;;;11.11;56.68;98029.81;5051502;28;20184;-57
2023/12/25 07:32:22;;;;;;;1.00;0.95;;;;;;;11.12;57.28;98023.69;5051144;28;20194;-57
2023/12/25 07:34:47;;;;;;;2.22;1.60;;;;;;;10.93;57.38;98001.91;5051694;28;20623;-57
2023/12/25 07:37:12;;;;;;;1.52;1.42;;;;;;;10.82;57.35;97976.88;5051727;28;20182;-57
2023/12/25 07:39:40;;;;;;;1.55;1.25;;;;;;;11.05;57.29;98019.09;5051729;28;20178;-57
2023/12/25 07:42:05;;;;;;;1.27;1.17;;;;;;;10.96;56.67;98001.66;5040099;28;20388;-56
2023/12/25 07:44:31;;;;;;;1.42;1.33;;;;;;;11.41;56.87;98081.00;5051289;28;20201;-57
2023/12/25 07:46:56;;;;;;;3.53;1.92;;;;;;;11.43;56.99;98079.16;5051424;28;20603;-57
2023/12/25 07:49:21;;;;;;;2.15;1.90;;;;;;;10.92;57.15;98013.22;5051459;28;20307;-57
2023/12/25 07:51:47;;;;;;;4.60;3.47;;;;;;;11.38;57.26;98082.06;5051510;28;20184;-57
2023/12/25 07:54:12;;;;;;;5.63;2.95;;;;;;;10.88;57.38;98001.44;5051075;28;20174;-57
2023/12/25 07:56:38;;;;;;;2.78;2.47;;;;;;;11.08;58.08;98016.28;5051060;28;20188;-57
2023/12/25 07:59:03;;;;;;;2.60;1.90;;;;;;;11.34;57.69;98033.22;5028868;28;20196;-57
2023/12/25 08:01:29;;;;;;;3.35;1.60;;;;;;;11.28;57.30;98011.22;5028767;28;20297;-57
2023/12/25 08:03:54;;;;;;;3.88;1.65;;;;;;;11.36;56.92;98021.78;5028901;28;20653;-57
2023/12/25 08:06:19;;;;;;;1.60;1.48;;;;;;;11.65;56.92;98048.03;5028907;28;20179;-57
2023/12/25 08:08:47;;;;;;;1.73;1.48;;;;;;;11.41;56.24;97987.75;5028881;28;20190;-57
2023/12/25 08:11:14;;;;;;;1.77;1.30;;;;;;;11.90;56.24;98050.38;5028835;28;20216;-57
2023/12/25 08:13:39;;;;;;;2.50;1.30;;;;;;;11.75;55.58;98012.69;5028860;28;20182;-57
2023/12/25 08:16:05;;;;;;;2.22;1.33;;;;;;;11.87;55.41;98022.06;5028950;28;20339;-57
2023/12/25 08:18:31;;;;;;;1.25;1.23;;;;;;;11.94;55.06;98002.50;5028871;28;20253;-58
2023/12/25 08:20:56;;;;;;;5.88;2.58;;;;;;;11.79;55.02;97973.44;5028659;28;20186;-57
2023/12/25 08:23:22;;;;;;;2.15;1.52;;;;;;;11.99;54.92;98011.56;5028557;28;20191;-57
2023/12/25 08:25:47;;;;;;;3.13;2.83;;;;;;;12.27;55.16;98056.84;5048258;28;20209;-57
2023/12/25 08:28:13;;;;;;;1.55;1.42;;;;;;;11.55;54.98;97933.09;5048471;28;20192;-58
2023/12/25 08:30:38;;;;;;;1.60;1.20;;;;;;;12.41;54.82;98079.88;5008706;28;20225;-57
2023/12/25 08:33:04;;;;;;;1.63;1.52;;;;;;;12.42;54.59;98076.34;5008878;28;20268;-57
2023/12/25 08:35:29;;;;;;;3.72;1.42;;;;;;;12.49;53.94;98057.53;5010525;28;20221;-56
2023/12/25 08:37:54;;;;;;;2.83;1.70;;;;;;;12.57;53.70;98049.13;5028664;28;20179;-57
2023/12/25 08:40:20;;;;;;;1.38;1.23;;;;;;;12.81;53.19;98079.09;5028503;28;20198;-57
2023/12/25 08:42:46;;;;;;;4.28;2.30;;;;;;;12.79;52.90;98043.84;5008571;28;20709;-56
2023/12/25 08:45:11;;;;;;;3.33;2.10;;;;;;;13.11;52.52;98083.53;5009908;28;20199;-57
2023/12/25 08:47:36;;;;;;;6.18;2.72;;;;;;;12.66;52.33;97996.47;5012265;28;20210;-58
2023/12/25 08:50:02;;;;;;;3.58;2.40;;;;;;;12.80;52.25;98002.16;5012262;28;20183;-58
2023/12/25 08:52:28;;;;;;;3.17;2.33;;;;;;;12.99;52.55;98012.69;5012113;28;20245;-58
2023/12/25 08:54:53;;;;;;;3.65;2.90;;;;;;;13.02;52.25;97988.22;5012285;28;20191;-58
2023/12/25 08:57:19;;;;;;;2.25;2.05;;;;;;;13.53;51.85;98040.94;4959268;28;20189;-58
2023/12/25 08:59:49;;;;;;;6.03;3.00;;;;;;;13.77;51.51;98070.00;4953717;29;20296;-59
2023/12/25 09:02:14;;;;;;;5.07;2.75;;;;;;;13.63;50.72;98026.16;4953598;29;20217;-57
2023/12/25 09:04:40;;;;;;;1.95;1.83;;;;;;;13.93;50.40;98059.94;4953763;29;20195;-58
2023/12/25 09:07:05;;;;;;;1.95;1.80;;;;;;;13.96;50.25;98033.63;4955481;28;20236;-57
2023/12/25 09:09:31;;;;;;;5.55;2.08;;;;;;;13.80;50.42;98007.31;4973137;28;20280;-57
2023/12/25 09:11:56;;;;;;;2.78;2.28;;;;;;;14.10;49.96;98036.66;4972900;28;20196;-59
2023/12/25 09:14:22;;;;;;;1.92;1.75;;;;;;;14.00;49.83;97993.41;5002438;28;20199;-57
2023/12/25 09:16:47;;;;;;;3.05;2.70;;;;;;;14.31;49.19;98040.00;5011743;28;20705;-57
2023/12/25 09:19:13;;;;;;;4.03;2.38;;;;;;;14.42;48.49;98031.22;5012030;28;20185;-57
2023/12/25 09:21:39;;;;;;;2.63;2.20;;;;;;;14.46;48.80;98027.41;5011666;28;20282;-57
2023/12/25 09:24:05;;;;;;;3.13;2.65;;;;;;;14.11;48.55;97962.84;5011374;28;20199;-57
2023/12/25 09:26:30;;;;;;;5.18;2.67;;;;;;;14.65;48.02;98028.16;5011661;28;20632;-57
2023/12/25 09:28:56;;;;;;;3.70;2.75;;;;;;;14.42;47.93;97984.38;5043407;28;20185;-57
2023/12/25 09:31:21;;;;;;;4.10;2.55;;;;;;;14.66;47.69;98001.19;5053595;28;20188;-57
2023/12/25 09:33:47;;;;;;;3.20;2.45;;;;;;;14.68;47.06;97980.19;5051000;28;20238;-57
2023/12/25 09:36:12;;;;;;;4.13;2.28;;;;;;;15.10;47.46;98033.56;5051043;28;20695;-58
2023/12/25 09:38:38;;;;;;;3.47;2.58;;;;;;;14.80;47.36;97972.09;5051088;28;20663;-58
2023/12/25 09:41:08;;;;;;;4.82;2.72;;;;;;;15.04;47.35;98003.69;5050934;28;20664;-58
2023/12/25 09:43:38;;;;;;;3.75;2.58;;;;;;;15.08;47.97;97985.97;5051105;28;20367;-58
2023/12/25 09:46:04;;;;;;;6.10;3.30;;;;;;;15.06;48.02;97969.66;5030895;28;20218;-58
2023/12/25 09:48:30;;;;;;;5.97;3.42;;;;;;;15.03;47.99;97960.34;5030872;28;20187;-58
2023/12/25 09:50:57;;;;;;;8.43;3.72;;;;;;;15.32;48.43;97991.47;5030869;28;20187;-58
2023/12/25 09:53:23;;;;;;;4.15;2.70;;;;;;;15.39;47.33;97969.16;5031035;28;20190;-58
2023/12/25 09:55:50;;;;;;;5.00;2.97;;;;;;;15.56;46.92;97987.41;5030249;28;20186;-56
2023/12/25 09:58:16;;;;;;;4.68;2.55;;;;;;;15.88;46.01;98005.22;5030763;28;20252;-56
2023/12/25 10:00:41;;;;;;;3.08;2.20;;;;;;;15.71;45.80;97948.63;5030868;28;20182;-56
2023/12/25 10:03:07;;;;;;;3.40;2.60;;;;;;;15.68;45.68;97934.09;5030628;28;20189;-56
2023/12/25 10:05:32;;;;;;;1.60;1.48;;;;;;;15.76;45.22;97920.31;5030767;28;20280;-56
2023/12/25 10:07:58;;;;;;;3.80;2.05;;;;;;;15.78;45.17;97910.53;5030613;28;20186;-56
2023/12/25 10:10:29;;;;;;;4.78;1.80;;;;;;;15.81;44.81;97894.59;5030606;28;20277;-56
2023/12/25 10:12:56;;;;;;;2.55;1.92;;;;;;;16.41;44.86;97966.88;5030597;28;20190;-56
2023/12/25 10:15:23;;;;;;;1.70;1.60;;;;;;;15.57;44.28;97823.97;5027998;28;20388;-57
2023/12/25 10:18:21;;;;;;;3.90;1.88;;;;;;;16.10;44.82;97916.03;5030544;28;20198;-57
2023/12/25 10:20:55;;;;;;;7.05;2.55;;;;;;;16.14;44.69;97912.13;4990962;28;20219;-57
2023/12/25 10:23:27;;;;;;;1.75;1.65;;;;;;;16.28;44.37;97940.31;4999836;28;20186;-57
2023/12/25 10:25:53;;;;;;;2.60;2.15;;;;;;;16.59;43.66;97965.88;5010645;28;20210;-57
2023/12/25 10:28:19;;;;;;;2.20;1.60;;;;;;;16.22;43.91;97899.16;5010584;28;20175;-57
2023/12/25 10:30:46;;;;;;;1.55;1.40;;;;;;;16.79;44.07;97979.56;5010554;28;20202;-57
2023/12/25 10:33:15;;;;;;;1.52;1.38;;;;;;;16.76;44.63;97993.75;5010578;28;20593;-57
2023/12/25 10:35:41;;;;;;;1.20;1.20;;;;;;;16.76;44.13;97982.47;5010395;28;20661;-57
2023/12/25 10:38:07;;;;;;;1.67;1.23;;;;;;;16.47;43.57;97941.00;5010483;28;20187;-57
2023/12/25 10:40:34;;;;;;;0.80;0.80;;;;;;;16.65;43.32;97964.44;5010285;28;20241;-57
2023/12/25 10:42:59;;;;;;;1.98;1.50;;;;;;;16.74;42.07;97974.78;4971150;28;20219;-57
2023/12/25 10:45:30;;;;;;;1.88;1.40;;;;;;;16.42;42.19;97911.06;4971247;28;20288;-57
2023/12/25 10:48:03;;;;;;;1.15;1.08;;;;;;;16.55;44.02;97906.28;4971121;28;20203;-57
2023/12/25 10:50:33;;;;;;;2.28;1.85;;;;;;;16.83;44.33;97942.53;4971109;28;20191;-56
2023/12/25 10:53:06;;;;;;;2.28;1.98;;;;;;;16.78;43.49;97928.25;4971178;28;20204;-57
2023/12/25 10:55:39;;;;;;;2.20;2.00;;;;;;;16.87;43.84;97943.84;4971080;28;20169;-57
2023/12/25 10:58:23;;;;;;;5.88;2.85;;;;;;;16.89;44.90;97941.91;4998886;28;20187;-57
2023/12/25 11:00:56;;;;;;;4.70;2.95;;;;;;;16.90;44.37;97945.34;5010037;28;20248;-57
2023/12/25 11:03:22;;;;;;;10.50;2.97;;;;;;;16.63;44.58;97894.09;5010006;28;20268;-57
2023/12/25 11:05:48;;;;;;;3.72;2.97;;;;;;;16.33;44.39;97844.09;5009991;28;20615;-57
2023/12/25 11:08:15;;;;;;;3.03;2.72;;;;;;;16.94;43.92;97947.47;5009113;28;20195;-57
2023/12/25 11:10:41;;;;;;;7.43;4.75;;;;;;;16.95;43.51;97940.44;5009805;28;20309;-58
2023/12/25 11:13:07;;;;;;;9.43;6.57;;;;;;;16.93;43.71;97945.03;5012716;28;20693;-57
2023/12/25 11:15:33;;;;;;;4.38;3.15;;;;;;;16.97;43.03;97943.75;5031858;28;20180;-57
2023/12/25 11:17:59;;;;;;;4.22;3.10;;;;;;;16.96;42.50;97934.28;5031905;28;20512;-58
2023/12/25 11:20:25;;;;;;;6.18;2.80;;;;;;;17.05;41.20;97936.75;5031772;28;20257;-58
2023/12/25 11:22:55;;;;;;;3.97;2.30;;;;;;;16.92;42.31;97904.19;5031310;28;20648;-58
2023/12/25 11:25:21;;;;;;;3.97;2.50;;;;;;;16.94;42.48;97912.69;5031346;28;20203;-57
2023/12/25 11:27:54;;;;;;;4.68;2.25;;;;;;;16.73;42.99;97876.47;5031316;28;20178;-57